Forside
METAR-TAF:

METAR-TAF

Lufthavne :

Pittsburg, Kansas, USA

Breddekreds: 37-26-58N, længdekreds: 094-43-52W, højde: 290 m

Aktuelle vejr

Denne rapport blev lavet for 23 minutter siden, kl. 21:35 UTC
Vind 5 kt fra sydsydøst
Temperatur 16°C
Fugtighed 39%
Tryk 1017 hPa
Sigt: 16.1 km
skyfri

METAR: KPTS 162135Z AUTO 16005KT 10SM CLR 16/02 A3003 RMK AO2 T01610021

Tid: 15:58 (21:58 UTC)


TAF: fraværende

Vejrobservationer og prognoser fra mere end 4000 lufthavne (METAR og TAF).

De gule og røde prikker repræsenterer de meteorologiske stationer.

Flyt musen over at se navnet på stationen.

Så klik over at se vejr observationer og prognoser.

At skifte det kort: Klik på de grønne knapper med et sort kors for at zoome ind; på den grønne knap med en bindestreg for at zoome ud; eller på de grønne pile for tilstødende kort.


METAR-TAF: